Clackamas, Oregon
Current Conditions -  °F | °C
As of 12:53 AM on Sunday 23 Nov 2014 (Local Time) from KTTD Reporting Station
Light Rain Light Rain  
Wind Chill:   Ceiling: 6000
Heat Index:   Visibility: 8mi
Dew Point:   Wind: 8mph
Humidity: 83%   Direction: 220°SW
Pressure: 30.27"   Gusts: NA
Location:  45.41°N, 122.55°W
Report Text: KTTD 230853Z AUTO 22007KT 8SM -RA FEW039 BKN060 OVC070 09/06 A3027 RMK AO2 RAB39 SLP249 P0000 60000 T00890061 53020
Loading
Personal Weather Stations






























Interactive Weather Map New forecast layout! Learn more

10-Day Weather Forecast

Advertisements
Track Severe Weather on mobile